Time;durP1;ratioP1;P1;durP2;ratioP2;P2;SDS_P1;SDS_P2;PMS_P1;PMS_P2;Temp;Humidity;BMP_temperature;BMP_pressure;BME280_temperature;BME280_humidity;BME280_pressure;Samples;Min_cycle;Max_cycle;Signal;HPM_P1;HPM_P2
2023/10/09 00:02:14;;;;;;;5.57;1.73;;;16.80;54.30;;;;;;2363485;53;20957;-64
2023/10/09 00:04:41;;;;;;;7.72;1.67;;;16.80;54.30;;;;;;2621008;52;21031;-68
2023/10/09 00:07:10;;;;;;;6.57;1.85;;;16.80;54.50;;;;;;2621197;52;20995;-64
2023/10/09 00:09:48;;;;;;;6.72;1.75;;;16.80;54.50;;;;;;2369592;53;20926;-64
2023/10/09 00:12:28;;;;;;;4.60;1.75;;;16.70;54.40;;;;;;2368646;53;20922;-65
2023/10/09 00:14:55;;;;;;;5.47;1.73;;;16.70;54.40;;;;;;2620062;52;20914;-68
2023/10/09 00:17:23;;;;;;;5.87;1.60;;;16.70;54.40;;;;;;2368861;53;20926;-65
2023/10/09 00:19:54;;;;;;;5.97;1.85;;;16.60;54.30;;;;;;2620487;52;21092;-66
2023/10/09 00:22:28;;;;;;;6.25;1.62;;;16.60;54.40;;;;;;2621400;52;21200;-64
2023/10/09 00:25:10;;;;;;;5.80;1.85;;;16.60;54.40;;;;;;2371584;53;21201;-65
2023/10/09 00:27:42;;;;;;;5.53;1.65;;;16.50;54.40;;;;;;2369123;53;20950;-70
2023/10/09 00:30:18;;;;;;;6.07;1.77;;;16.50;54.70;;;;;;2567890;52;21439;-65
2023/10/09 00:33:07;;;;;;;11.45;2.03;;;16.50;54.60;;;;;;2360323;54;21020;-67
2023/10/09 00:38:46;;;;;;;5.75;1.70;;;16.40;54.60;;;;;;2620643;52;20942;-66
2023/10/09 00:41:20;;;;;;;5.60;1.58;;;16.40;54.60;;;;;;2619724;52;20898;-64
2023/10/09 00:43:49;;;;;;;6.50;1.95;;;16.40;54.70;;;;;;2618341;52;21783;-66
2023/10/09 00:49:02;;;;;;;5.12;1.70;;;16.30;54.60;;;;;;2370481;53;21785;-68
2023/10/09 00:51:35;;;;;;;3.67;1.33;;;16.30;54.60;;;;;;2368921;53;21073;-65
2023/10/09 00:54:14;;;;;;;4.10;1.15;;;16.30;54.60;;;;;;2619889;52;21476;-68
2023/10/09 00:56:43;;;;;;;7.87;1.50;;;16.30;54.60;;;;;;2368886;53;20950;-66
2023/10/09 00:59:20;;;;;;;4.35;1.35;;;16.20;54.60;;;;;;2620041;52;20985;-63
2023/10/09 01:02:03;;;;;;;5.82;1.60;;;16.20;54.70;;;;;;2370536;53;21034;-65
2023/10/09 01:04:36;;;;;;;7.50;1.58;;;16.20;54.70;;;;;;2362370;53;20942;-64
2023/10/09 01:07:08;;;;;;;5.97;1.70;;;16.10;54.70;;;;;;2367887;53;20998;-68
2023/10/09 01:09:38;;;;;;;4.72;1.75;;;16.20;54.90;;;;;;2621208;52;20946;-66
2023/10/09 01:12:05;;;;;;;6.28;1.40;;;16.00;54.80;;;;;;2619560;52;20930;-66
2023/10/09 01:14:36;;;;;;;6.57;1.80;;;16.00;54.80;;;;;;2617409;52;21581;-66
2023/10/09 01:17:08;;;;;;;5.75;1.87;;;16.00;55.50;;;;;;2570738;52;21028;-64
2023/10/09 01:19:34;;;;;;;8.82;2.00;;;16.00;55.50;;;;;;2619961;52;20926;-64
2023/10/09 01:22:12;;;;;;;5.60;1.70;;;16.00;54.90;;;;;;2367269;53;20946;-67
2023/10/09 01:24:43;;;;;;;6.75;1.65;;;16.00;54.90;;;;;;2616689;52;21013;-68
2023/10/09 01:27:15;;;;;;;6.60;2.20;;;15.90;54.90;;;;;;2611793;52;21029;-64
2023/10/09 01:29:43;;;;;;;6.25;2.00;;;15.90;55.00;;;;;;2360993;53;21073;-66
2023/10/09 01:32:16;;;;;;;8.98;2.22;;;15.90;55.10;;;;;;2619052;52;20911;-67
2023/10/09 01:34:43;;;;;;;5.03;1.40;;;15.90;55.10;;;;;;2621080;52;20970;-72
2023/10/09 01:37:22;;;;;;;7.68;1.70;;;15.90;55.10;;;;;;2615518;52;20945;-67
2023/10/09 01:39:50;;;;;;;4.10;1.50;;;15.90;55.10;;;;;;2363557;53;20998;-67
2023/10/09 01:42:50;;;;;;;5.30;1.73;;;15.80;55.10;;;;;;2368172;53;21049;-67
2023/10/09 01:48:04;;;;;;;5.00;1.37;;;15.80;55.10;;;;;;2586182;52;20949;-64
2023/10/09 01:50:31;;;;;;;5.87;1.90;;;15.80;55.20;;;;;;2340635;54;21525;-64
2023/10/09 01:53:01;;;;;;;5.45;1.60;;;15.80;55.20;;;;;;2343917;54;21297;-64
2023/10/09 01:55:40;;;;;;;5.65;1.90;;;15.80;55.20;;;;;;2620538;52;21723;-64
2023/10/09 01:58:17;;;;;;;7.55;1.92;;;15.70;55.10;;;;;;2619263;52;20902;-66
2023/10/09 02:00:48;;;;;;;4.90;1.30;;;15.70;55.10;;;;;;2368272;53;20922;-67
2023/10/09 02:03:15;;;;;;;8.27;1.60;;;15.70;55.20;;;;;;2367695;53;21265;-68
2023/10/09 02:05:45;;;;;;;3.80;1.17;;;15.70;55.20;;;;;;2620732;52;21800;-67
2023/10/09 02:08:15;;;;;;;7.62;1.48;;;15.70;55.30;;;;;;2368292;53;21451;-66
2023/10/09 02:10:47;;;;;;;6.45;1.30;;;15.60;55.30;;;;;;2367908;53;20996;-68
2023/10/09 02:13:17;;;;;;;6.00;1.67;;;15.60;55.30;;;;;;2619927;52;21423;-67
2023/10/09 02:15:58;;;;;;;6.65;2.03;;;15.60;55.40;;;;;;2611698;52;21968;-70
2023/10/09 02:21:15;;;;;;;6.80;1.83;;;15.60;55.40;;;;;;2366899;53;20946;-66
2023/10/09 02:29:43;;;;;;;8.95;2.15;;;15.50;55.40;;;;;;2615798;52;20922;-66
2023/10/09 02:32:25;;;;;;;9.10;1.60;;;15.50;55.40;;;;;;2596891;52;21073;-67
2023/10/09 02:34:53;;;;;;;6.33;1.70;;;15.50;55.50;;;;;;2366849;53;21001;-66
2023/10/09 02:37:25;;;;;;;9.07;1.80;;;15.50;55.50;;;;;;2368172;53;20990;-66
2023/10/09 02:39:52;;;;;;;7.30;1.60;;;15.50;55.50;;;;;;2369146;53;21463;-67
2023/10/09 02:42:27;;;;;;;8.10;1.95;;;15.40;55.40;;;;;;2367734;53;20922;-66
2023/10/09 02:44:55;;;;;;;6.55;2.05;;;15.40;55.60;;;;;;2620489;52;20935;-67
2023/10/09 02:47:24;;;;;;;6.47;2.10;;;15.40;55.60;;;;;;2367788;53;21898;-66
2023/10/09 02:49:51;;;;;;;4.35;1.80;;;15.30;55.70;;;;;;2620583;52;21133;-66
2023/10/09 02:52:25;;;;;;;4.82;1.80;;;15.30;55.80;;;;;;2368253;53;20997;-66
2023/10/09 02:54:59;;;;;;;4.20;1.33;;;15.30;55.80;;;;;;2368766;53;20974;-66
2023/10/09 02:57:35;;;;;;;6.95;1.62;;;15.30;55.80;;;;;;2368912;53;20958;-66
2023/10/09 03:00:09;;;;;;;7.15;1.85;;;15.30;55.90;;;;;;2620765;52;20990;-66
2023/10/09 03:02:39;;;;;;;5.32;1.62;;;15.30;55.80;;;;;;2368745;53;20973;-67
2023/10/09 03:05:11;;;;;;;5.32;1.42;;;15.30;55.90;;;;;;2368117;53;20918;-67
2023/10/09 03:07:39;;;;;;;4.75;1.40;;;15.30;55.90;;;;;;2366939;53;20942;-66
2023/10/09 03:10:09;;;;;;;3.97;1.50;;;15.30;55.80;;;;;;2349705;53;20918;-65
2023/10/09 03:12:35;;;;;;;7.28;2.10;;;15.30;55.90;;;;;;2621296;52;21333;-66
2023/10/09 03:15:05;;;;;;;10.27;2.17;;;15.30;55.90;;;;;;2368353;53;20934;-66
2023/10/09 03:17:34;;;;;;;7.62;1.67;;;15.20;55.80;;;;;;2368084;53;20946;-66
2023/10/09 03:20:12;;;;;;;7.75;2.12;;;15.30;56.00;;;;;;2595320;52;21880;-67
2023/10/09 03:22:39;;;;;;;4.62;1.50;;;15.20;55.80;;;;;;2369087;53;20926;-66
2023/10/09 03:25:11;;;;;;;7.37;1.90;;;15.30;56.00;;;;;;2620087;52;21428;-64
2023/10/09 03:27:46;;;;;;;8.48;1.70;;;15.20;55.90;;;;;;2368813;53;20954;-66
2023/10/09 03:30:19;;;;;;;6.62;1.85;;;15.20;56.60;;;;;;2620373;52;21629;-66
2023/10/09 03:32:50;;;;;;;5.15;1.87;;;15.20;56.00;;;;;;2368139;53;21038;-67
2023/10/09 03:35:33;;;;;;;9.75;1.73;;;15.20;56.00;;;;;;2619312;52;21071;-66
2023/10/09 03:38:02;;;;;;;10.32;1.70;;;15.20;56.10;;;;;;2620496;52;20922;-66
2023/10/09 03:40:28;;;;;;;7.37;2.08;;;15.20;56.20;;;;;;2591140;52;21041;-64
2023/10/09 03:42:55;;;;;;;5.18;1.70;;;15.20;56.30;;;;;;2367946;53;21026;-64
2023/10/09 03:45:25;;;;;;;5.43;1.77;;;15.20;56.40;;;;;;2367839;53;20927;-64
2023/10/09 03:47:57;;;;;;;5.00;2.30;;;15.20;56.40;;;;;;2367192;53;20938;-64
2023/10/09 03:50:26;;;;;;;6.45;2.08;;;15.20;56.40;;;;;;2620249;52;21340;-66
2023/10/09 03:52:54;;;;;;;6.32;1.87;;;15.20;56.40;;;;;;2368719;53;21045;-66
2023/10/09 03:55:27;;;;;;;7.45;1.52;;;15.20;56.40;;;;;;2620470;52;21005;-66
2023/10/09 03:57:57;;;;;;;8.10;2.00;;;15.20;56.40;;;;;;2368256;53;20998;-66
2023/10/09 04:00:28;;;;;;;7.43;1.77;;;15.20;56.40;;;;;;2620273;52;20950;-66
2023/10/09 04:02:57;;;;;;;7.50;2.05;;;15.20;56.40;;;;;;2603954;52;20934;-66
2023/10/09 04:05:24;;;;;;;8.82;2.25;;;15.20;56.50;;;;;;2358275;53;20953;-66
2023/10/09 04:07:53;;;;;;;5.37;1.95;;;15.20;56.50;;;;;;2621013;52;21071;-65
2023/10/09 04:13:10;;;;;;;4.47;1.65;;;15.20;56.60;;;;;;2355273;53;20941;-65
2023/10/09 04:15:36;;;;;;;4.97;1.62;;;15.20;56.60;;;;;;2368681;53;21021;-66
2023/10/09 04:18:05;;;;;;;4.90;1.35;;;15.30;56.70;;;;;;2620480;52;20966;-66
2023/10/09 04:20:47;;;;;;;5.65;1.40;;;15.20;56.50;;;;;;2619043;52;21042;-66
2023/10/09 04:23:16;;;;;;;5.67;1.70;;;15.30;56.60;;;;;;2348583;53;21037;-66
2023/10/09 04:25:42;;;;;;;6.35;1.83;;;15.30;56.70;;;;;;2333805;53;20925;-66
2023/10/09 04:28:09;;;;;;;5.12;1.58;;;15.30;56.70;;;;;;2340543;53;20920;-66
2023/10/09 04:30:40;;;;;;;4.80;1.37;;;15.20;56.70;;;;;;2586842;52;21020;-66
2023/10/09 04:33:27;;;;;;;4.90;1.83;;;15.30;56.70;;;;;;2341151;53;20976;-66
2023/10/09 04:36:28;;;;;;;5.47;1.45;;;15.30;56.70;;;;;;2341224;53;20992;-66
2023/10/09 04:42:36;;;;;;;5.53;1.25;;;15.30;56.60;;;;;;2340877;53;20941;-66
2023/10/09 04:51:22;;;;;;;4.35;1.40;;;15.20;56.80;;;;;;2586748;52;20932;-66
2023/10/09 04:54:12;;;;;;;6.28;1.35;;;15.30;56.80;;;;;;2340085;53;20937;-66
2023/10/09 04:56:53;;;;;;;8.00;1.75;;;15.30;56.80;;;;;;2341251;53;20961;-66
2023/10/09 04:59:24;;;;;;;4.35;1.55;;;15.30;56.90;;;;;;2340877;53;20952;-66
2023/10/09 05:01:58;;;;;;;17.55;2.08;;;15.20;56.80;;;;;;2341768;53;20997;-65
2023/10/09 05:04:39;;;;;;;10.95;2.50;;;15.20;57.00;;;;;;2343847;53;21021;-66
2023/10/09 05:07:22;;;;;;;4.87;1.90;;;15.20;57.00;;;;;;2587206;52;21004;-66
2023/10/09 05:09:56;;;;;;;4.85;1.60;;;15.20;57.00;;;;;;2340675;53;21001;-66
2023/10/09 05:12:27;;;;;;;5.37;1.48;;;15.30;57.10;;;;;;2340555;53;21662;-66
2023/10/09 05:15:09;;;;;;;8.32;2.05;;;15.30;57.20;;;;;;2343904;53;20987;-66
2023/10/09 05:17:38;;;;;;;5.57;1.73;;;15.30;57.20;;;;;;2586858;52;20897;-69
2023/10/09 05:29:48;;;;;;;5.30;1.27;;;15.30;57.30;;;;;;2341120;53;21425;-66
2023/10/09 05:32:27;;;;;;;5.30;1.60;;;15.40;57.00;;;;;;2340876;54;20972;-66
2023/10/09 05:38:01;;;;;;;4.70;1.62;;;15.40;57.10;;;;;;2340119;54;20985;-66
2023/10/09 05:40:31;;;;;;;5.72;1.33;;;15.30;57.00;;;;;;2340141;54;20993;-66
2023/10/09 05:43:02;;;;;;;4.70;1.70;;;15.30;57.10;;;;;;2586813;52;20941;-66
2023/10/09 05:51:46;;;;;;;10.10;2.40;;;15.40;57.40;;;;;;2620775;52;20939;-66
2023/10/09 05:54:23;;;;;;;8.82;2.35;;;15.40;57.40;;;;;;2621009;52;20919;-66
2023/10/09 06:03:48;;;;;;;5.57;1.83;;;15.40;57.40;;;;;;2621604;52;20932;-66
2023/10/09 06:13:37;;;;;;;5.00;1.73;;;15.50;57.60;;;;;;2620677;52;20975;-66
2023/10/09 06:16:19;;;;;;;4.30;1.50;;;15.50;57.50;;;;;;2621076;52;20926;-66
2023/10/09 06:18:54;;;;;;;5.18;1.67;;;15.50;57.60;;;;;;2358086;53;21650;-66
2023/10/09 06:24:59;;;;;;;5.03;1.67;;;15.60;57.80;;;;;;2593076;52;21728;-67
2023/10/09 06:30:26;;;;;;;7.53;1.87;;;15.50;57.70;;;;;;2340610;53;21716;-66
2023/10/09 06:32:58;;;;;;;6.30;1.75;;;15.60;57.70;;;;;;2605173;52;20911;-67
2023/10/09 06:35:30;;;;;;;;;;;15.60;57.80;;;;;;2344135;53;21446;-65
2023/10/09 06:59:24;;;;;;;6.28;1.55;;;15.70;57.90;;;;;;2334898;53;20911;-70
2023/10/09 07:02:25;;;;;;;7.07;1.95;;;15.90;58.10;;;;;;2615096;52;21394;-67
2023/10/09 07:04:54;;;;;;;7.75;1.95;;;15.90;58.30;;;;;;2336948;54;20992;-66
2023/10/09 07:07:21;;;;;;;5.50;1.70;;;15.90;58.40;;;;;;2587272;52;21394;-67
2023/10/09 07:12:32;;;;;;;7.45;2.37;;;16.00;58.80;;;;;;2588207;52;21676;-67
2023/10/09 07:15:21;;;;;;;6.65;1.92;;;16.10;58.90;;;;;;2363679;54;21001;-68
2023/10/09 07:17:47;;;;;;;10.07;2.25;;;16.10;59.00;;;;;;2610531;52;20922;-67
2023/10/09 07:20:36;;;;;;;6.03;2.53;;;16.20;59.10;;;;;;2587684;52;21412;-67
2023/10/09 07:23:15;;;;;;;6.05;2.45;;;16.30;59.30;;;;;;2587149;52;20983;-67
2023/10/09 07:25:54;;;;;;;8.85;2.60;;;16.40;59.40;;;;;;2341244;53;20929;-66
2023/10/09 07:28:36;;;;;;;5.30;2.22;;;16.40;59.40;;;;;;2339728;53;20921;-66
2023/10/09 07:31:23;;;;;;;7.18;2.17;;;16.50;59.50;;;;;;2340557;53;21445;-67
2023/10/09 07:33:57;;;;;;;7.35;2.00;;;16.60;59.70;;;;;;2368806;53;21022;-68
2023/10/09 07:36:34;;;;;;;5.75;1.87;;;16.70;59.60;;;;;;2368639;53;21713;-70
2023/10/09 07:39:17;;;;;;;5.30;2.00;;;16.80;59.60;;;;;;2370686;53;20994;-68
2023/10/09 07:41:56;;;;;;;5.78;2.08;;;16.80;59.60;;;;;;2365923;53;20910;-67
2023/10/09 07:44:55;;;;;;;8.15;1.90;;;16.90;59.70;;;;;;2620681;52;21545;-69
2023/10/09 07:50:11;;;;;;;8.48;2.10;;;17.10;59.70;;;;;;2616897;52;20950;-68
2023/10/09 07:52:43;;;;;;;4.70;2.20;;;17.20;59.70;;;;;;2620882;52;20926;-67
2023/10/09 07:55:25;;;;;;;8.68;2.05;;;17.30;59.80;;;;;;2620170;52;20970;-66
2023/10/09 07:57:53;;;;;;;6.20;2.00;;;17.40;59.90;;;;;;2368289;53;20925;-66
2023/10/09 08:01:05;;;;;;;9.90;2.25;;;17.50;60.00;;;;;;2368666;53;20918;-69
2023/10/09 08:03:34;;;;;;;;;;;17.60;60.10;;;;;;2624505;52;21002;-66
2023/10/09 08:11:59;;;;;;;7.10;2.22;;;17.90;60.30;;;;;;2368409;53;20934;-64
2023/10/09 08:18:03;;;;;;;4.53;1.60;;;18.10;60.50;;;;;;2621065;52;20994;-66
2023/10/09 08:23:28;;;;;;;7.65;2.50;;;18.40;60.60;;;;;;2621227;52;21037;-65
2023/10/09 08:26:14;;;;;;;4.37;1.75;;;18.50;60.60;;;;;;2586872;52;20965;-65
2023/10/09 08:28:44;;;;;;;8.13;1.87;;;18.70;60.70;;;;;;2328769;54;21014;-64
2023/10/09 08:33:58;;;;;;;10.18;2.97;;;18.90;60.60;;;;;;2572867;53;21375;-65
2023/10/09 08:36:36;;;;;;;7.37;2.50;;;19.00;60.50;;;;;;2586492;52;20981;-65
2023/10/09 08:39:17;;;;;;;8.32;2.30;;;19.10;60.60;;;;;;2342664;53;21402;-65
2023/10/09 08:42:10;;;;;;;5.82;2.30;;;19.30;60.80;;;;;;2586942;52;20933;-65
2023/10/09 08:44:39;;;;;;;8.07;2.20;;;19.50;60.70;;;;;;2341171;53;20936;-65
2023/10/09 08:47:07;;;;;;;6.93;2.00;;;19.60;60.60;;;;;;2340950;53;21017;-65
2023/10/09 08:49:33;;;;;;;9.48;2.20;;;19.70;61.30;;;;;;2340276;53;21351;-66
2023/10/09 08:52:03;;;;;;;6.10;1.90;;;19.80;60.60;;;;;;2586770;52;21001;-65
2023/10/09 08:54:33;;;;;;;7.20;2.10;;;19.90;60.50;;;;;;2340797;53;20950;-65
2023/10/09 08:57:01;;;;;;;7.32;2.40;;;20.00;60.40;;;;;;2350823;53;20970;-64
2023/10/09 08:59:30;;;;;;;6.90;2.55;;;20.20;60.50;;;;;;2352064;53;20974;-66
2023/10/09 09:01:59;;;;;;;8.85;2.75;;;20.30;60.50;;;;;;2368706;53;21835;-68
2023/10/09 09:04:40;;;;;;;7.12;2.08;;;20.40;60.50;;;;;;2342656;53;20976;-66
2023/10/09 09:07:31;;;;;;;7.07;2.55;;;20.60;60.60;;;;;;2567816;52;20993;-65
2023/10/09 09:09:58;;;;;;;6.00;2.37;;;20.70;60.50;;;;;;2340727;54;21381;-68
2023/10/09 09:12:24;;;;;;;7.53;2.00;;;20.80;60.60;;;;;;2369064;53;20982;-66
2023/10/09 09:14:51;;;;;;;10.48;2.47;;;20.90;60.60;;;;;;2368285;53;20899;-66
2023/10/09 09:17:30;;;;;;;6.00;2.45;;;21.00;60.60;;;;;;2620444;52;20994;-65
2023/10/09 09:19:57;;;;;;;6.47;2.22;;;21.10;60.60;;;;;;2343395;53;21001;-69
2023/10/09 09:22:24;;;;;;;4.68;1.67;;;21.20;60.60;;;;;;2340977;53;20933;-67
2023/10/09 09:25:09;;;;;;;5.57;1.73;;;21.30;60.40;;;;;;2346663;53;20986;-67
2023/10/09 09:27:52;;;;;;;6.35;2.05;;;21.50;60.30;;;;;;2354410;53;21005;-66
2023/10/09 09:30:34;;;;;;;6.30;2.00;;;21.60;60.20;;;;;;2586844;52;21347;-65
2023/10/09 09:33:30;;;;;;;5.78;1.90;;;21.70;60.10;;;;;;2341037;53;21208;-66
2023/10/09 09:35:58;;;;;;;4.47;1.48;;;21.80;59.90;;;;;;2340387;53;21959;-67
2023/10/09 09:38:28;;;;;;;6.50;1.77;;;21.90;60.20;;;;;;2340266;53;20936;-66
2023/10/09 09:41:02;;;;;;;8.27;2.15;;;22.10;60.20;;;;;;2340779;53;21247;-66
2023/10/09 09:43:30;;;;;;;5.10;1.87;;;22.20;60.30;;;;;;2587568;52;20936;-66
2023/10/09 09:45:56;;;;;;;4.00;1.50;;;22.30;60.30;;;;;;2586851;52;20939;-66
2023/10/09 09:48:23;;;;;;;8.23;1.70;;;22.40;60.30;;;;;;2340631;54;20976;-66
2023/10/09 09:50:54;;;;;;;5.85;1.87;;;22.50;60.10;;;;;;2340589;54;20916;-66
2023/10/09 09:53:23;;;;;;;6.70;1.70;;;22.60;60.00;;;;;;2340138;54;20940;-65
2023/10/09 09:55:58;;;;;;;4.53;1.70;;;22.70;60.00;;;;;;2587102;52;21066;-66
2023/10/09 09:58:32;;;;;;;7.10;2.30;;;22.80;59.80;;;;;;2341136;54;20996;-68
2023/10/09 10:02:06;;;;;;;;;;;;;;;;;;;;;
2023/10/09 10:04:35;;;;;;;5.78;2.53;;;23.00;59.70;;;;;;2587044;52;20968;-67
2023/10/09 10:07:09;;;;;;;8.32;2.05;;;23.20;59.90;;;;;;2341530;53;21450;-66
2023/10/09 10:09:41;;;;;;;5.50;1.60;;;23.30;59.90;;;;;;2587297;52;20949;-66
2023/10/09 10:12:11;;;;;;;7.15;1.92;;;23.40;59.80;;;;;;2587453;52;21059;-66
2023/10/09 10:14:58;;;;;;;7.10;2.33;;;23.40;59.80;;;;;;2587702;52;21690;-68
2023/10/09 10:17:27;;;;;;;4.80;1.75;;;23.50;59.00;;;;;;2353595;53;20929;-67
2023/10/09 10:24:06;;;;;;;4.55;1.62;;;23.70;59.00;;;;;;2344407;53;20997;-66
2023/10/09 10:26:35;;;;;;;7.97;2.33;;;23.80;59.00;;;;;;2571642;52;20954;-67
2023/10/09 10:29:23;;;;;;;7.07;2.05;;;23.90;59.50;;;;;;2338292;54;20923;-67
2023/10/09 10:31:57;;;;;;;7.78;2.35;;;24.00;59.20;;;;;;2340949;53;20965;-65
2023/10/09 10:34:24;;;;;;;8.02;2.20;;;24.10;59.30;;;;;;2584953;52;20938;-66
2023/10/09 10:37:01;;;;;;;5.93;1.95;;;24.20;59.40;;;;;;2339923;53;20935;-66
2023/10/09 10:39:42;;;;;;;6.35;1.92;;;24.30;59.40;;;;;;2340261;53;21943;-66
2023/10/09 10:42:33;;;;;;;6.95;2.33;;;24.40;59.30;;;;;;2340990;53;20992;-66
2023/10/09 10:45:33;;;;;;;9.18;2.55;;;24.50;59.20;;;;;;2352024;54;20922;-66
2023/10/09 10:48:06;;;;;;;6.15;1.98;;;24.60;59.20;;;;;;2621530;52;20951;-65
2023/10/09 10:50:35;;;;;;;7.35;2.33;;;24.80;59.20;;;;;;2557562;52;21019;-66
2023/10/09 10:53:47;;;;;;;7.87;2.47;;;24.80;59.00;;;;;;2349533;53;20944;-66
2023/10/09 11:03:19;;;;;;;5.60;1.62;;;25.20;58.70;;;;;;2367843;53;21743;-66
2023/10/09 11:05:54;;;;;;;7.93;1.90;;;25.40;58.30;;;;;;2367981;53;20939;-65
2023/10/09 11:08:24;;;;;;;3.90;1.55;;;25.50;58.50;;;;;;2367911;53;20966;-69
2023/10/09 11:10:53;;;;;;;7.25;1.80;;;25.60;58.10;;;;;;2368163;53;20938;-68
2023/10/09 11:13:37;;;;;;;4.30;1.50;;;25.70;58.20;;;;;;2620078;52;20993;-67
2023/10/09 11:16:28;;;;;;;5.80;1.80;;;25.70;57.90;;;;;;2367767;53;21743;-67
2023/10/09 11:18:57;;;;;;;5.78;1.75;;;25.80;57.70;;;;;;2367650;53;20918;-65
2023/10/09 11:21:30;;;;;;;7.25;2.15;;;25.90;57.50;;;;;;2368025;53;20946;-66
2023/10/09 11:24:24;;;;;;;5.62;1.80;;;26.00;57.40;;;;;;2620341;52;21002;-70
2023/10/09 11:26:56;;;;;;;4.18;1.40;;;26.10;57.40;;;;;;2619615;52;21010;-68
2023/10/09 11:29:28;;;;;;;4.72;1.58;;;26.30;57.50;;;;;;2620438;52;20922;-68
2023/10/09 11:32:05;;;;;;;6.35;2.15;;;26.40;57.30;;;;;;2620548;52;21739;-67
2023/10/09 11:34:53;;;;;;;7.45;2.10;;;26.40;56.70;;;;;;2367886;53;21033;-67
2023/10/09 11:37:39;;;;;;;6.78;1.83;;;26.50;56.40;;;;;;2368344;53;20949;-66
2023/10/09 11:40:23;;;;;;;7.75;2.28;;;26.60;56.90;;;;;;2364404;54;21293;-67
2023/10/09 11:42:50;;;;;;;6.05;2.17;;;26.70;56.90;;;;;;2368547;53;21450;-67
2023/10/09 11:45:24;;;;;;;4.65;1.70;;;26.70;56.90;;;;;;2368640;53;21304;-67
2023/10/09 11:47:58;;;;;;;6.97;1.75;;;26.80;56.80;;;;;;2619869;52;20997;-70
2023/10/09 11:54:30;;;;;;;7.25;1.95;;;26.90;55.60;;;;;;2613789;52;21405;-66
2023/10/09 11:56:56;;;;;;;6.72;1.87;;;27.00;55.30;;;;;;2620351;52;20926;-66
2023/10/09 11:59:23;;;;;;;5.40;1.55;;;27.00;55.90;;;;;;2620269;52;20998;-66
2023/10/09 12:01:52;;;;;;;6.32;1.60;;;27.00;55.70;;;;;;2621022;52;20939;-67
2023/10/09 12:04:19;;;;;;;6.18;1.77;;;27.00;55.60;;;;;;2614023;52;20925;-67
2023/10/09 12:06:45;;;;;;;6.62;2.17;;;27.00;55.50;;;;;;2616675;52;20977;-66
2023/10/09 12:09:17;;;;;;;5.90;1.62;;;27.00;55.30;;;;;;2364957;53;21173;-68
2023/10/09 12:11:52;;;;;;;6.12;1.80;;;27.00;55.30;;;;;;2367082;53;20942;-68
2023/10/09 12:14:26;;;;;;;8.13;1.87;;;27.10;55.00;;;;;;2609946;52;20934;-66
2023/10/09 12:16:53;;;;;;;6.28;1.37;;;27.10;55.00;;;;;;2367741;53;21425;-66
2023/10/09 12:19:22;;;;;;;4.15;1.40;;;27.10;54.80;;;;;;2367513;53;20906;-66
2023/10/09 12:21:49;;;;;;;4.65;1.48;;;27.10;54.80;;;;;;2363880;53;20973;-67
2023/10/09 12:24:18;;;;;;;5.37;1.73;;;27.10;55.00;;;;;;2368049;53;20974;-67
2023/10/09 12:26:45;;;;;;;6.62;2.20;;;27.10;54.80;;;;;;2370789;53;21010;-65
2023/10/09 12:29:12;;;;;;;6.65;2.08;;;27.10;54.70;;;;;;2359829;54;21459;-69
2023/10/09 12:31:38;;;;;;;9.65;2.15;;;27.10;54.60;;;;;;2368176;53;20958;-66
2023/10/09 12:34:05;;;;;;;5.70;1.80;;;27.10;54.40;;;;;;2368877;53;20926;-66
2023/10/09 12:36:37;;;;;;;8.75;2.28;;;27.10;54.40;;;;;;2369013;53;20938;-66
2023/10/09 12:39:03;;;;;;;6.90;1.73;;;27.10;54.30;;;;;;2369530;53;21448;-69
2023/10/09 12:41:33;;;;;;;5.03;1.87;;;27.10;54.40;;;;;;2367894;53;21028;-66
2023/10/09 12:44:02;;;;;;;5.55;1.80;;;27.20;54.50;;;;;;2362363;53;20925;-67
2023/10/09 12:46:32;;;;;;;4.62;1.40;;;27.20;54.60;;;;;;2368652;53;20958;-66
2023/10/09 12:48:58;;;;;;;6.57;1.80;;;27.20;54.60;;;;;;2351185;54;20918;-65
2023/10/09 12:51:29;;;;;;;4.10;1.48;;;27.20;54.60;;;;;;2591733;52;21059;-67
2023/10/09 12:54:01;;;;;;;5.70;2.00;;;27.30;54.60;;;;;;2362111;54;21811;-65
2023/10/09 12:56:33;;;;;;;5.47;1.45;;;27.30;54.60;;;;;;2587654;52;20930;-67
2023/10/09 12:59:01;;;;;;;7.90;1.90;;;27.30;54.50;;;;;;2338687;54;21605;-66
2023/10/09 13:01:32;;;;;;;6.37;2.05;;;27.40;54.40;;;;;;2364877;53;20941;-66
2023/10/09 13:04:01;;;;;;;4.65;1.80;;;27.40;54.30;;;;;;2576612;53;21024;-66
2023/10/09 13:06:28;;;;;;;8.50;2.08;;;27.50;54.00;;;;;;2340406;53;21064;-66
2023/10/09 13:08:59;;;;;;;5.32;1.55;;;27.50;53.80;;;;;;2339886;53;20901;-69
2023/10/09 13:11:25;;;;;;;9.25;1.83;;;27.60;53.70;;;;;;2341086;53;21069;-66
2023/10/09 13:13:52;;;;;;;6.28;1.42;;;27.70;53.60;;;;;;2340972;53;20951;-67
2023/10/09 13:16:25;;;;;;;5.00;1.40;;;27.70;53.50;;;;;;2340671;53;20955;-66
2023/10/09 13:18:56;;;;;;;5.62;1.60;;;27.80;53.30;;;;;;2587003;52;20980;-67
2023/10/09 13:21:31;;;;;;;7.87;2.00;;;27.80;53.00;;;;;;2587784;52;21016;-65
2023/10/09 13:24:00;;;;;;;6.15;1.60;;;27.90;53.20;;;;;;2587571;52;20924;-67
2023/10/09 13:26:30;;;;;;;7.45;1.20;;;28.00;53.10;;;;;;2340860;53;20977;-67
2023/10/09 13:29:00;;;;;;;6.20;2.05;;;28.00;52.70;;;;;;2586710;52;20957;-66
2023/10/09 13:31:27;;;;;;;4.78;1.80;;;28.10;52.20;;;;;;2340439;54;20976;-67
2023/10/09 13:33:54;;;;;;;4.00;1.40;;;28.10;52.40;;;;;;2340517;54;21052;-66
2023/10/09 13:36:33;;;;;;;6.53;1.55;;;28.20;51.90;;;;;;2343083;54;20984;-67
2023/10/09 13:39:25;;;;;;;4.07;1.23;;;28.20;51.70;;;;;;2368991;53;20973;-66
2023/10/09 13:41:57;;;;;;;8.98;1.37;;;28.30;51.60;;;;;;2369041;53;20982;-67
2023/10/09 13:44:31;;;;;;;6.25;1.75;;;28.40;51.70;;;;;;2620952;52;21026;-67
2023/10/09 13:46:58;;;;;;;4.55;1.75;;;28.50;51.50;;;;;;2621157;52;20945;-66
2023/10/09 13:49:34;;;;;;;4.55;1.55;;;28.50;51.70;;;;;;2621108;52;21071;-68
2023/10/09 13:52:02;;;;;;;4.97;1.52;;;28.60;51.50;;;;;;2587478;52;20937;-67
2023/10/09 13:57:15;;;;;;;7.50;1.83;;;28.80;51.20;;;;;;2586345;52;20925;-72
2023/10/09 13:59:51;;;;;;;6.10;1.77;;;28.80;50.90;;;;;;2340949;53;20984;-67
2023/10/09 14:02:18;;;;;;;5.82;1.33;;;28.90;51.00;;;;;;2587274;52;20936;-67
2023/10/09 14:04:46;;;;;;;5.37;1.50;;;29.00;50.80;;;;;;2340721;53;21123;-70
2023/10/09 14:07:16;;;;;;;4.82;1.40;;;29.10;50.90;;;;;;2339972;53;21004;-66
2023/10/09 14:10:07;;;;;;;5.37;1.42;;;29.10;50.80;;;;;;2340828;53;20992;-69
2023/10/09 14:12:34;;;;;;;6.75;1.70;;;29.20;49.80;;;;;;2369011;53;20923;-68
2023/10/09 14:15:03;;;;;;;5.78;2.08;;;29.30;50.20;;;;;;2621114;52;20914;-67
2023/10/09 14:17:29;;;;;;;5.45;1.92;;;29.40;49.80;;;;;;2363749;53;21414;-67
2023/10/09 14:20:30;;;;;;;7.65;1.73;;;29.50;49.70;;;;;;2368360;53;20957;-70
2023/10/09 14:22:57;;;;;;;7.35;1.73;;;29.50;49.50;;;;;;2368476;53;21029;-66
2023/10/09 14:25:24;;;;;;;5.40;1.95;;;29.60;49.60;;;;;;2620928;52;22173;-67
2023/10/09 14:27:54;;;;;;;4.93;1.73;;;29.70;49.40;;;;;;2368163;53;20969;-67
2023/10/09 14:30:33;;;;;;;5.82;1.70;;;29.70;49.30;;;;;;2368052;53;20990;-65
2023/10/09 14:33:03;;;;;;;4.85;1.70;;;29.80;49.00;;;;;;2621127;52;21581;-67
2023/10/09 14:35:35;;;;;;;8.02;1.92;;;29.80;49.00;;;;;;2368467;53;20926;-68
2023/10/09 14:38:11;;;;;;;6.65;1.83;;;29.90;48.50;;;;;;2368856;53;20930;-67
2023/10/09 14:40:44;;;;;;;5.57;2.00;;;29.90;48.60;;;;;;2367996;53;21050;-66
2023/10/09 14:43:18;;;;;;;5.93;1.67;;;30.00;47.80;;;;;;2620686;52;21500;-67
2023/10/09 14:46:27;;;;;;;5.53;1.67;;;30.00;48.30;;;;;;2368303;53;21225;-66
2023/10/09 14:48:56;;;;;;;5.90;1.65;;;30.00;47.70;;;;;;2366748;53;20923;-68
2023/10/09 14:51:29;;;;;;;5.78;1.80;;;30.00;48.30;;;;;;2366180;53;21783;-68
2023/10/09 14:54:03;;;;;;;5.55;1.52;;;30.00;48.30;;;;;;2362720;53;20956;-69
2023/10/09 14:56:29;;;;;;;7.18;1.85;;;30.00;48.30;;;;;;2367786;53;21021;-66
2023/10/09 15:02:24;;;;;;;6.03;1.98;;;30.00;47.80;;;;;;2612735;52;21053;-66
2023/10/09 15:04:52;;;;;;;9.85;2.35;;;30.00;48.40;;;;;;2328078;53;21437;-67
2023/10/09 15:07:20;;;;;;;5.93;1.62;;;30.00;48.40;;;;;;2620015;52;21406;-66
2023/10/09 15:10:03;;;;;;;6.65;2.12;;;30.00;48.30;;;;;;2594762;52;22014;-69
2023/10/09 15:12:30;;;;;;;5.45;1.80;;;30.00;48.10;;;;;;2600827;52;20922;-66
2023/10/09 15:14:57;;;;;;;9.82;2.17;;;29.90;48.10;;;;;;2620156;52;20954;-66
2023/10/09 15:17:24;;;;;;;7.70;1.90;;;29.90;48.00;;;;;;2368631;53;20994;-66
2023/10/09 15:19:56;;;;;;;5.85;1.95;;;29.90;47.90;;;;;;2367591;53;20962;-66
2023/10/09 15:22:23;;;;;;;6.68;1.75;;;29.80;47.80;;;;;;2621078;52;20986;-66
2023/10/09 15:24:49;;;;;;;4.95;1.80;;;29.80;47.90;;;;;;2620850;52;20926;-66
2023/10/09 15:27:19;;;;;;;7.72;1.77;;;29.70;47.80;;;;;;2368378;53;20934;-66
2023/10/09 15:29:45;;;;;;;4.03;1.65;;;29.70;48.00;;;;;;2368373;53;20927;-66
2023/10/09 15:32:15;;;;;;;4.28;1.67;;;29.70;48.10;;;;;;2368471;54;20941;-66
2023/10/09 15:34:41;;;;;;;5.93;2.30;;;29.70;48.20;;;;;;2367625;53;21471;-66